Vahine — OJ3548 — position and weather

sailwx.info

Track history (hours):
 
Tides and Currents Weather Stations Pressure Air Temp Water Temp Dewpoint Dewpoint Depression Visibility Wind Speed Wind Dir Waves Ship Positions

Vahine

Last reported at 2018-May-26 11:04 UTC. Time now 2018-Jun-17 23:45 UTC.
Position N 60°06' E 021°42'.
Warning: this ship's position is 22 days out of date.

Length 20 m.

Type: Sailing vessel. MMSI: 230125970.

Date/timePositionNaut miles runAvg speedWind from/ knotsBaromVisibWave heightAir tempDewpointWater temp
2018-May-26 11:04N 60°06' E 021°42'0 6.4
2018-May-26 11:00N 60°06' E 021°42'4 6.5
2018-May-26 10:27N 60°02' E 021°41'3 6.5
2018-May-26 10:00N 59°59' E 021°42'3 5.6
2018-May-26 09:29N 59°57' E 021°39'3 5.8
2018-May-26 09:00N 59°55' E 021°35'3 5.7
2018-May-26 08:30N 59°53' E 021°31'2 4.4
2018-May-26 08:00N 59°52' E 021°27'3 5.8
2018-May-26 07:30N 59°50' E 021°23'2 4.9
2018-May-26 07:00N 59°48' E 021°21'1 1.7
2018-May-26 06:29N 59°47' E 021°22'0 0.0
2018-May-26 05:29N 59°47' E 021°22'0 0.0
2018-May-26 04:59N 59°47' E 021°22'0 0.0
2018-May-26 04:29N 59°47' E 021°22'0 0.0
2018-May-26 03:53N 59°47' E 021°22'0 0.0
2018-May-26 03:29N 59°47' E 021°22'0 0.0
2018-May-26 02:59N 59°47' E 021°22'0 0.0
2018-May-26 02:26N 59°47' E 021°22'0 0.0
2018-May-26 01:53N 59°47' E 021°22'0 0.0
2018-May-26 01:29N 59°47' E 021°22'0 0.0
2018-May-26 00:50N 59°47' E 021°22'0 0.0
2018-May-26 00:29N 59°47' E 021°22'0 0.0
2018-May-25 23:59N 59°47' E 021°22'0 0.0
2018-May-25 23:29N 59°47' E 021°22'0 0.0
2018-May-25 22:59N 59°47' E 021°22'0 0.0
2018-May-25 22:29N 59°47' E 021°22'0 0.0
2018-May-25 21:59N 59°47' E 021°22'0 0.0
2018-May-25 21:26N 59°47' E 021°22'0 0.0
2018-May-25 20:59N 59°47' E 021°22'0 0.0
2018-May-25 20:29N 59°47' E 021°22'0 0.0
2018-May-25 19:56N 59°47' E 021°22'0 0.0
2018-May-25 19:29N 59°47' E 021°22'0 0.0
2018-May-25 18:59N 59°47' E 021°22'0 0.0
2018-May-25 18:29N 59°47' E 021°22'0 0.0
2018-May-25 17:59N 59°47' E 021°22'0 0.0
2018-May-25 17:29N 59°47' E 021°22'0 0.0
2018-May-25 16:59N 59°47' E 021°22'0 0.0
2018-May-25 16:29N 59°47' E 021°22'0 0.0
2018-May-25 15:59N 59°47' E 021°22'0 0.0
2018-May-25 15:29N 59°47' E 021°22'1 1.1
2018-May-25 15:00N 59°47' E 021°22'2 4.3
2018-May-25 14:29N 59°45' E 021°20'3 6.1
2018-May-25 14:00N 59°42' E 021°19'3 6.0
2018-May-25 13:30N 59°40' E 021°15'3 5.9
2018-May-25 13:00N 59°38' E 021°11'  
2018-May-22 22:01N 56°26' E 016°49'1 6.0
2018-May-22 21:49N 56°25' E 016°48'2 6.0
2018-May-22 21:30N 56°24' E 016°46'3 6.1
2018-May-22 21:00N 56°21' E 016°43'3 6.0
2018-May-22 20:30N 56°19' E 016°40'2 4.0
2018-May-22 20:01N 56°17' E 016°39'2 4.6
2018-May-22 19:30N 56°15' E 016°36'3 5.9
2018-May-22 19:01N 56°12' E 016°34'3 6.6
2018-May-22 18:30N 56°10' E 016°31'3 6.5
2018-May-22 18:00N 56°07' E 016°27'3 6.0
2018-May-22 17:30N 56°05' E 016°23'3 5.9
2018-May-22 17:00N 56°04' E 016°18'3 5.8
2018-May-22 16:31N 56°03' E 016°13'3 5.7
2018-May-22 16:01N 56°02' E 016°09'3 5.6
2018-May-22 15:31N 56°01' E 016°04'3 5.6
2018-May-22 15:01N 55°60' E 015°59'3 5.6
2018-May-22 14:31N 55°59' E 015°54'3 5.9
2018-May-22 14:01N 55°58' E 015°49'3 5.5
2018-May-22 13:30N 55°56' E 015°45'3 5.8
2018-May-22 13:00N 55°56' E 015°40'2 4.4
2018-May-22 12:31N 55°55' E 015°37'3 6.3
2018-May-22 12:01N 55°52' E 015°35'3 5.5
2018-May-22 11:30N 55°50' E 015°32'3 5.1
2018-May-22 11:00N 55°48' E 015°29'3 5.8
2018-May-22 10:31N 55°45' E 015°28'3 6.9
2018-May-22 10:01N 55°42' E 015°26'3 6.7
2018-May-22 09:30N 55°39' E 015°24'3 7.1
2018-May-22 09:01N 55°35' E 015°23'3 6.1
2018-May-22 08:31N 55°32' E 015°23'3 5.8
2018-May-22 08:00N 55°29' E 015°22'3 6.1
2018-May-22 07:31N 55°26' E 015°21'3 5.7
2018-May-22 07:01N 55°23' E 015°21'1 2.9
2018-May-22 06:31N 55°24' E 015°19'2 4.7
2018-May-22 06:00N 55°23' E 015°16'3 5.3
2018-May-22 05:30N 55°21' E 015°13'2 3.5
2018-May-22 04:59N 55°19' E 015°11'0 0.0
2018-May-22 04:29N 55°19' E 015°11'0 0.0
2018-May-22 03:59N 55°19' E 015°11'0 0.0
2018-May-22 03:29N 55°19' E 015°11'0 0.0
2018-May-22 02:56N 55°19' E 015°11'0 0.0
2018-May-22 02:29N 55°19' E 015°11'0 0.0
2018-May-22 01:59N 55°19' E 015°11'0 0.0
2018-May-22 01:29N 55°19' E 015°11'0 0.0
2018-May-22 00:59N 55°19' E 015°11'0 0.0
2018-May-22 00:29N 55°19' E 015°11'0 0.0
2018-May-21 23:59N 55°19' E 015°11'0 0.0
2018-May-21 23:29N 55°19' E 015°11'0 0.0
2018-May-21 22:59N 55°19' E 015°11'0 0.0
2018-May-21 22:29N 55°19' E 015°11'0 0.0
2018-May-21 21:59N 55°19' E 015°11'0 0.0
2018-May-21 21:29N 55°19' E 015°11'0 0.0
2018-May-21 20:59N 55°19' E 015°11'0 0.0
2018-May-21 20:29N 55°19' E 015°11'0 0.0
2018-May-21 19:59N 55°19' E 015°11'0 0.0
2018-May-21 19:29N 55°19' E 015°11'0 0.0
2018-May-21 18:59N 55°19' E 015°11'0 0.0
2018-May-21 18:29N 55°19' E 015°11'0 0.0
2018-May-21 17:59N 55°19' E 015°11'0 0.0
2018-May-21 17:29N 55°19' E 015°11'0 0.0
2018-May-21 16:59N 55°19' E 015°11'0 0.0
2018-May-21 16:29N 55°19' E 015°11'0 0.0
2018-May-21 15:59N 55°19' E 015°11'0 0.0
2018-May-21 15:29N 55°19' E 015°11'0 0.0
2018-May-21 14:59N 55°19' E 015°11'0 0.0
2018-May-21 14:29N 55°19' E 015°11'0 0.0
2018-May-21 13:59N 55°19' E 015°11'0 0.0
2018-May-21 13:29N 55°19' E 015°11'0 0.0
2018-May-21 12:59N 55°19' E 015°11'0 0.0
2018-May-21 12:29N 55°19' E 015°11'0 0.9
2018-May-21 11:59N 55°20' E 015°11'2 3.7
2018-May-21 11:30N 55°19' E 015°08'3 5.7
2018-May-21 10:59N 55°19' E 015°03'3 5.7
2018-May-21 10:30N 55°19' E 014°58'15 5.7
2018-May-21 07:49N 55°19' E 014°31'2 5.4
2018-May-21 07:28N 55°19' E 014°28'18 4.3
2018-May-21 03:20N 55°18' E 013°57'2 4.2
2018-May-21 02:55N 55°18' E 013°54'3 4.0
2018-May-21 02:15N 55°18' E 013°49'1 4.6
2018-May-21 02:00N 55°18' E 013°47'12 4.4
2018-May-20 23:15N 55°17' E 013°26'1 4.6
2018-May-20 22:58N 55°17' E 013°24'23 4.1
2018-May-20 17:19N 55°21' E 012°44'2 6.1
2018-May-20 16:59N 55°23' E 012°44'1 2.3
2018-May-20 16:26N 55°24' E 012°44'2 3.7
2018-May-20 16:00N 55°25' E 012°41'3 5.7
2018-May-20 15:30N 55°27' E 012°44'2 4.4
2018-May-20 15:00N 55°29' E 012°44'3 5.5
2018-May-20 14:30N 55°32' E 012°43'3 5.5
2018-May-20 14:00N 55°34' E 012°42'3 5.7
2018-May-20 13:30N 55°37' E 012°42'3 5.5
2018-May-20 13:00N 55°40' E 012°40'2 5.1
2018-May-20 12:30N 55°42' E 012°37'1 2.6
2018-May-20 11:59N 55°41' E 012°36'0 0.0
2018-May-20 11:29N 55°41' E 012°36'0 0.0
2018-May-20 10:59N 55°41' E 012°36'0 0.0
2018-May-20 10:29N 55°41' E 012°36'0 0.0
2018-May-20 09:59N 55°41' E 012°36'0 0.0
2018-May-20 09:29N 55°41' E 012°36'0 0.0
2018-May-20 08:59N 55°41' E 012°36'0 0.0
2018-May-20 08:29N 55°41' E 012°36'0 0.0
2018-May-20 07:59N 55°41' E 012°36'0 0.0
2018-May-20 07:29N 55°41' E 012°36'0 0.0
2018-May-20 06:59N 55°41' E 012°36'0 0.0
2018-May-20 06:29N 55°41' E 012°36'0 0.0
2018-May-20 05:59N 55°41' E 012°36'0 0.0
2018-May-20 05:29N 55°41' E 012°36'0 0.0
2018-May-20 04:59N 55°41' E 012°36'0 0.0
2018-May-20 04:26N 55°41' E 012°36'0 0.0
2018-May-20 03:59N 55°41' E 012°36'0 0.0
2018-May-20 03:29N 55°41' E 012°36'0 0.0
2018-May-20 02:59N 55°41' E 012°36'0 0.0
2018-May-20 02:29N 55°41' E 012°36'0 0.0
2018-May-20 01:59N 55°41' E 012°36'0 0.0
2018-May-20 01:29N 55°41' E 012°36'0 0.0
2018-May-20 00:59N 55°41' E 012°36'0 0.0
2018-May-20 00:29N 55°41' E 012°36'0 0.0
2018-May-19 23:59N 55°41' E 012°36'0 0.0
2018-May-19 23:29N 55°41' E 012°36'0 0.0
2018-May-19 22:59N 55°41' E 012°36'0 0.0
2018-May-19 22:29N 55°41' E 012°36'0 0.0
2018-May-19 21:59N 55°41' E 012°36'0 0.0
2018-May-19 21:29N 55°41' E 012°36'0 0.0
2018-May-19 20:59N 55°41' E 012°36'0 0.0
2018-May-19 20:29N 55°41' E 012°36'0 0.0
2018-May-19 19:59N 55°41' E 012°36'0 0.0
2018-May-19 19:29N 55°41' E 012°36'0 0.0
2018-May-19 18:59N 55°41' E 012°36'0 0.0
2018-May-19 18:29N 55°41' E 012°36'0 0.0
2018-May-19 17:59N 55°41' E 012°36'0 0.0
2018-May-19 17:29N 55°41' E 012°36'0 0.0
2018-May-19 16:59N 55°41' E 012°36'0 0.0
2018-May-19 16:29N 55°41' E 012°36'0 0.0
2018-May-19 15:59N 55°41' E 012°36'0 0.0
2018-May-19 15:29N 55°41' E 012°36'0 0.0
2018-May-19 14:59N 55°41' E 012°36'0 0.0
2018-May-19 14:29N 55°41' E 012°36'0 0.0
2018-May-19 13:59N 55°41' E 012°36'0 0.0
2018-May-19 13:29N 55°41' E 012°36'0 0.0
2018-May-19 12:59N 55°41' E 012°36'0 0.0
2018-May-19 12:29N 55°41' E 012°36'0 0.0
2018-May-19 11:59N 55°41' E 012°36'0 0.0
2018-May-19 11:29N 55°41' E 012°36'0 0.0
2018-May-19 10:59N 55°41' E 012°36'0 0.0
2018-May-19 10:29N 55°41' E 012°36'0 0.0
2018-May-19 09:59N 55°41' E 012°36'0 0.0
2018-May-19 09:29N 55°41' E 012°36'0 0.0
2018-May-19 08:59N 55°41' E 012°36'0 0.0
2018-May-19 08:29N 55°41' E 012°36'0 0.0
2018-May-19 07:59N 55°41' E 012°36'0 0.0
2018-May-19 07:29N 55°41' E 012°36'0 0.0
2018-May-19 06:59N 55°41' E 012°36'0 0.0
2018-May-19 06:29N 55°41' E 012°36'0 0.0
2018-May-19 05:59N 55°41' E 012°36'0 0.0
2018-May-19 05:29N 55°41' E 012°36'0 0.0
2018-May-19 04:59N 55°41' E 012°36'0 0.0
2018-May-19 04:29N 55°41' E 012°36'0 0.0
2018-May-19 03:59N 55°41' E 012°36'0 0.0
2018-May-19 03:29N 55°41' E 012°36'0 0.0
2018-May-19 02:59N 55°41' E 012°36'0 0.0
2018-May-19 02:29N 55°41' E 012°36'0 0.0
2018-May-19 01:59N 55°41' E 012°36'0 0.0
2018-May-19 01:29N 55°41' E 012°36'0 0.0
2018-May-19 00:59N 55°41' E 012°36'0 0.0
2018-May-19 00:29N 55°41' E 012°36'0 0.0
2018-May-18 23:59N 55°41' E 012°36'0 0.0
2018-May-18 23:29N 55°41' E 012°36'0 0.0
2018-May-18 22:59N 55°41' E 012°36'0 0.0
2018-May-18 22:29N 55°41' E 012°36'0 0.0
2018-May-18 21:59N 55°41' E 012°36'0 0.0
2018-May-18 21:29N 55°41' E 012°36'0 0.0
2018-May-18 20:59N 55°41' E 012°36'0 0.0
2018-May-18 20:29N 55°41' E 012°36'0 0.0
2018-May-18 19:59N 55°41' E 012°36'0 0.0
2018-May-18 19:29N 55°41' E 012°36'0 0.0
2018-May-18 18:59N 55°41' E 012°36'0 0.0
2018-May-18 18:29N 55°41' E 012°36'0 0.0
2018-May-18 17:59N 55°41' E 012°36'0 0.0
2018-May-18 17:29N 55°41' E 012°36'0 0.0
2018-May-18 16:59N 55°41' E 012°36'0 0.0
2018-May-18 16:29N 55°41' E 012°36'0 0.0
2018-May-18 15:59N 55°41' E 012°36'0 0.0
2018-May-18 15:29N 55°41' E 012°36'0 0.0
2018-May-18 14:59N 55°41' E 012°36'0 0.0
2018-May-18 14:29N 55°41' E 012°36'0 0.0
2018-May-18 13:59N 55°41' E 012°36'0 0.0
2018-May-18 13:29N 55°41' E 012°36'0 0.0
2018-May-18 12:59N 55°41' E 012°36'0 0.0
2018-May-18 12:29N 55°41' E 012°36'0 0.0
2018-May-18 11:59N 55°41' E 012°36'0 0.0
2018-May-18 11:29N 55°41' E 012°36'0 0.0
2018-May-18 10:59N 55°41' E 012°36'0 0.0
2018-May-18 10:29N 55°41' E 012°36'0 0.0
2018-May-18 09:59N 55°41' E 012°36'0 0.0
2018-May-18 09:29N 55°41' E 012°36'0 0.0
2018-May-18 08:59N 55°41' E 012°36'0 0.0
2018-May-18 08:29N 55°41' E 012°36'0 0.0
2018-May-18 07:59N 55°41' E 012°36'0 0.0
2018-May-18 07:30N 55°41' E 012°36'0 0.2
2018-May-18 06:58N 55°41' E 012°36'0 0.0
2018-May-18 06:28N 55°41' E 012°36'0 0.0
2018-May-18 05:58N 55°41' E 012°36'0 0.0
2018-May-18 05:28N 55°41' E 012°36'0 0.0
2018-May-18 04:58N 55°41' E 012°36'0 0.0
2018-May-18 04:28N 55°41' E 012°36'0 0.0
2018-May-18 03:58N 55°41' E 012°36'0 0.0
2018-May-18 03:28N 55°41' E 012°36'0 0.0
2018-May-18 02:58N 55°41' E 012°36'0 0.0
2018-May-18 02:28N 55°41' E 012°36'0 0.0
2018-May-18 01:58N 55°41' E 012°36'0 0.0
2018-May-18 01:28N 55°41' E 012°36'0 0.0
2018-May-18 00:58N 55°41' E 012°36'0 0.0
2018-May-18 00:28N 55°41' E 012°36'0 0.0
2018-May-17 23:58N 55°41' E 012°36'0 0.0
2018-May-17 23:28N 55°41' E 012°36'0 0.0
2018-May-17 22:58N 55°41' E 012°36'0 0.0
2018-May-17 22:28N 55°41' E 012°36'0 0.0
2018-May-17 21:58N 55°41' E 012°36'0 0.0
2018-May-17 21:28N 55°41' E 012°36'0 0.0
2018-May-17 20:58N 55°41' E 012°36'0 0.0
2018-May-17 20:28N 55°41' E 012°36'0 0.0
2018-May-17 19:58N 55°41' E 012°36'0 0.0
2018-May-17 19:28N 55°41' E 012°36'0 0.0
2018-May-17 18:58N 55°41' E 012°36'0 0.0
2018-May-17 18:28N 55°41' E 012°36'0 0.0
2018-May-17 17:58N 55°41' E 012°36'0 0.0
2018-May-17 17:27N 55°41' E 012°36'1 3.0
2018-May-17 17:00N 55°42' E 012°37'2 4.7
2018-May-17 16:30N 55°44' E 012°39'3 6.3
2018-May-17 16:00N 55°47' E 012°41'2 4.9
2018-May-17 15:30N 55°50' E 012°41'3 5.0
2018-May-17 15:00N 55°52' E 012°40'3 5.4
2018-May-17 14:30N 55°54' E 012°38'3 6.3
2018-May-17 14:00N 55°58' E 012°38'3 6.0
2018-May-17 13:28N 56°01' E 012°38'52 4.9
2018-May-17 02:57N 56°52' E 012°20'4 7.2
2018-May-17 02:24N 56°53' E 012°13'2 6.3
2018-May-17 02:00N 56°54' E 012°08'3 5.7
2018-May-17 01:28N 56°56' E 012°05'3 5.4
2018-May-17 01:00N 56°58' E 012°03'3 5.4
2018-May-17 00:30N 57°01' E 011°59'3 5.2
2018-May-17 00:00N 57°03' E 011°57'3 5.1
2018-May-16 23:30N 57°05' E 011°54'3 5.2
2018-May-16 23:00N 57°07' E 011°52'3 5.2
2018-May-16 22:28N 57°10' E 011°50'3 5.4
2018-May-16 22:00N 57°12' E 011°48'3 5.5
2018-May-16 21:30N 57°15' E 011°46'3 5.8
2018-May-16 21:00N 57°17' E 011°43'3 5.9
2018-May-16 20:30N 57°19' E 011°40'3 5.9
2018-May-16 20:00N 57°22' E 011°36'3 6.2
2018-May-16 19:30N 57°24' E 011°33'3 6.3
2018-May-16 19:00N 57°27' E 011°30'3 6.5
2018-May-16 18:30N 57°29' E 011°25'3 5.5
2018-May-16 18:00N 57°30' E 011°20'1 2.9
2018-May-16 17:30N 57°31' E 011°18'2 3.7
2018-May-16 17:00N 57°31' E 011°15'2 4.4
2018-May-16 16:30N 57°32' E 011°11'2 4.6
2018-May-16 16:00N 57°32' E 011°06'2 4.8
2018-May-16 15:30N 57°33' E 011°02'2 4.1
2018-May-16 15:00N 57°34' E 010°59'2 4.5
2018-May-16 14:27N 57°35' E 010°55'2 4.9
2018-May-16 14:00N 57°36' E 010°51'2 4.8
2018-May-16 13:30N 57°37' E 010°48'2 4.3
2018-May-16 13:00N 57°39' E 010°44'2 4.7
2018-May-16 12:30N 57°40' E 010°41'3 5.3
2018-May-16 12:00N 57°42' E 010°38'2 3.0
2018-May-16 11:27N 57°43' E 010°35'  
Track history (hours):
 
Tides and Currents Weather Stations Pressure Air Temp Water Temp Dewpoint Dewpoint Depression Visibility Wind Speed Wind Dir Waves Ship Positions

Vahine

Last reported at 2018-May-26 11:04 UTC. Time now 2018-Jun-17 23:45 UTC.
Position N 60°06' E 021°42'.
Warning: this ship's position is 22 days out of date.

Length 20 m.

Type: Sailing vessel. MMSI: 230125970.

Date/timePositionNaut miles runAvg speedWind from/ knotsBaromVisibWave heightAir tempDewpointWater temp
2018-May-26 11:04N 60°06' E 021°42'0 6.4
2018-May-26 11:00N 60°06' E 021°42'4 6.5
2018-May-26 10:27N 60°02' E 021°41'3 6.5
2018-May-26 10:00N 59°59' E 021°42'3 5.6
2018-May-26 09:29N 59°57' E 021°39'3 5.8
2018-May-26 09:00N 59°55' E 021°35'3 5.7
2018-May-26 08:30N 59°53' E 021°31'2 4.4
2018-May-26 08:00N 59°52' E 021°27'3 5.8
2018-May-26 07:30N 59°50' E 021°23'2 4.9
2018-May-26 07:00N 59°48' E 021°21'1 1.7
2018-May-26 06:29N 59°47' E 021°22'0 0.0
2018-May-26 05:29N 59°47' E 021°22'0 0.0
2018-May-26 04:59N 59°47' E 021°22'0 0.0
2018-May-26 04:29N 59°47' E 021°22'0 0.0
2018-May-26 03:53N 59°47' E 021°22'0 0.0
2018-May-26 03:29N 59°47' E 021°22'0 0.0
2018-May-26 02:59N 59°47' E 021°22'0 0.0
2018-May-26 02:26N 59°47' E 021°22'0 0.0
2018-May-26 01:53N 59°47' E 021°22'0 0.0
2018-May-26 01:29N 59°47' E 021°22'0 0.0
2018-May-26 00:50N 59°47' E 021°22'0 0.0
2018-May-26 00:29N 59°47' E 021°22'0 0.0
2018-May-25 23:59N 59°47' E 021°22'0 0.0
2018-May-25 23:29N 59°47' E 021°22'0 0.0
2018-May-25 22:59N 59°47' E 021°22'0 0.0
2018-May-25 22:29N 59°47' E 021°22'0 0.0
2018-May-25 21:59N 59°47' E 021°22'0 0.0
2018-May-25 21:26N 59°47' E 021°22'0 0.0
2018-May-25 20:59N 59°47' E 021°22'0 0.0
2018-May-25 20:29N 59°47' E 021°22'0 0.0
2018-May-25 19:56N 59°47' E 021°22'0 0.0
2018-May-25 19:29N 59°47' E 021°22'0 0.0
2018-May-25 18:59N 59°47' E 021°22'0 0.0
2018-May-25 18:29N 59°47' E 021°22'0 0.0
2018-May-25 17:59N 59°47' E 021°22'0 0.0
2018-May-25 17:29N 59°47' E 021°22'0 0.0
2018-May-25 16:59N 59°47' E 021°22'0 0.0
2018-May-25 16:29N 59°47' E 021°22'0 0.0
2018-May-25 15:59N 59°47' E 021°22'0 0.0
2018-May-25 15:29N 59°47' E 021°22'1 1.1
2018-May-25 15:00N 59°47' E 021°22'2 4.3
2018-May-25 14:29N 59°45' E 021°20'3 6.1
2018-May-25 14:00N 59°42' E 021°19'3 6.0
2018-May-25 13:30N 59°40' E 021°15'3 5.9
2018-May-25 13:00N 59°38' E 021°11'  
2018-May-22 22:01N 56°26' E 016°49'1 6.0
2018-May-22 21:49N 56°25' E 016°48'2 6.0
2018-May-22 21:30N 56°24' E 016°46'3 6.1
2018-May-22 21:00N 56°21' E 016°43'3 6.0
2018-May-22 20:30N 56°19' E 016°40'2 4.0
2018-May-22 20:01N 56°17' E 016°39'2 4.6
2018-May-22 19:30N 56°15' E 016°36'3 5.9
2018-May-22 19:01N 56°12' E 016°34'3 6.6
2018-May-22 18:30N 56°10' E 016°31'3 6.5
2018-May-22 18:00N 56°07' E 016°27'3 6.0
2018-May-22 17:30N 56°05' E 016°23'3 5.9
2018-May-22 17:00N 56°04' E 016°18'3 5.8
2018-May-22 16:31N 56°03' E 016°13'3 5.7
2018-May-22 16:01N 56°02' E 016°09'3 5.6
2018-May-22 15:31N 56°01' E 016°04'3 5.6
2018-May-22 15:01N 55°60' E 015°59'3 5.6
2018-May-22 14:31N 55°59' E 015°54'3 5.9
2018-May-22 14:01N 55°58' E 015°49'3 5.5
2018-May-22 13:30N 55°56' E 015°45'3 5.8
2018-May-22 13:00N 55°56' E 015°40'2 4.4
2018-May-22 12:31N 55°55' E 015°37'3 6.3
2018-May-22 12:01N 55°52' E 015°35'3 5.5
2018-May-22 11:30N 55°50' E 015°32'3 5.1
2018-May-22 11:00N 55°48' E 015°29'3 5.8
2018-May-22 10:31N 55°45' E 015°28'3 6.9
2018-May-22 10:01N 55°42' E 015°26'3 6.7
2018-May-22 09:30N 55°39' E 015°24'3 7.1
2018-May-22 09:01N 55°35' E 015°23'3 6.1
2018-May-22 08:31N 55°32' E 015°23'3 5.8
2018-May-22 08:00N 55°29' E 015°22'3 6.1
2018-May-22 07:31N 55°26' E 015°21'3 5.7
2018-May-22 07:01N 55°23' E 015°21'1 2.9
2018-May-22 06:31N 55°24' E 015°19'2 4.7
2018-May-22 06:00N 55°23' E 015°16'3 5.3
2018-May-22 05:30N 55°21' E 015°13'2 3.5
2018-May-22 04:59N 55°19' E 015°11'0 0.0
2018-May-22 04:29N 55°19' E 015°11'0 0.0
2018-May-22 03:59N 55°19' E 015°11'0 0.0
2018-May-22 03:29N 55°19' E 015°11'0 0.0
2018-May-22 02:56N 55°19' E 015°11'0 0.0
2018-May-22 02:29N 55°19' E 015°11'0 0.0
2018-May-22 01:59N 55°19' E 015°11'0 0.0
2018-May-22 01:29N 55°19' E 015°11'0 0.0
2018-May-22 00:59N 55°19' E 015°11'0 0.0
2018-May-22 00:29N 55°19' E 015°11'0 0.0
2018-May-21 23:59N 55°19' E 015°11'0 0.0
2018-May-21 23:29N 55°19' E 015°11'0 0.0
2018-May-21 22:59N 55°19' E 015°11'0 0.0
2018-May-21 22:29N 55°19' E 015°11'0 0.0
2018-May-21 21:59N 55°19' E 015°11'0 0.0
2018-May-21 21:29N 55°19' E 015°11'0 0.0
2018-May-21 20:59N 55°19' E 015°11'0 0.0
2018-May-21 20:29N 55°19' E 015°11'0 0.0
2018-May-21 19:59N 55°19' E 015°11'0 0.0
2018-May-21 19:29N 55°19' E 015°11'0 0.0
2018-May-21 18:59N 55°19' E 015°11'0 0.0
2018-May-21 18:29N 55°19' E 015°11'0 0.0
2018-May-21 17:59N 55°19' E 015°11'0 0.0
2018-May-21 17:29N 55°19' E 015°11'0 0.0
2018-May-21 16:59N 55°19' E 015°11'0 0.0
2018-May-21 16:29N 55°19' E 015°11'0 0.0
2018-May-21 15:59N 55°19' E 015°11'0 0.0
2018-May-21 15:29N 55°19' E 015°11'0 0.0
2018-May-21 14:59N 55°19' E 015°11'0 0.0
2018-May-21 14:29N 55°19' E 015°11'0 0.0
2018-May-21 13:59N 55°19' E 015°11'0 0.0
2018-May-21 13:29N 55°19' E 015°11'0 0.0
2018-May-21 12:59N 55°19' E 015°11'0 0.0
2018-May-21 12:29N 55°19' E 015°11'0 0.9
2018-May-21 11:59N 55°20' E 015°11'2 3.7
2018-May-21 11:30N 55°19' E 015°08'3 5.7
2018-May-21 10:59N 55°19' E 015°03'3 5.7
2018-May-21 10:30N 55°19' E 014°58'15 5.7
2018-May-21 07:49N 55°19' E 014°31'2 5.4
2018-May-21 07:28N 55°19' E 014°28'18 4.3
2018-May-21 03:20N 55°18' E 013°57'2 4.2
2018-May-21 02:55N 55°18' E 013°54'3 4.0
2018-May-21 02:15N 55°18' E 013°49'1 4.6
2018-May-21 02:00N 55°18' E 013°47'12 4.4
2018-May-20 23:15N 55°17' E 013°26'1 4.6
2018-May-20 22:58N 55°17' E 013°24'23 4.1
2018-May-20 17:19N 55°21' E 012°44'2 6.1
2018-May-20 16:59N 55°23' E 012°44'1 2.3
2018-May-20 16:26N 55°24' E 012°44'2 3.7
2018-May-20 16:00N 55°25' E 012°41'3 5.7
2018-May-20 15:30N 55°27' E 012°44'2 4.4
2018-May-20 15:00N 55°29' E 012°44'3 5.5
2018-May-20 14:30N 55°32' E 012°43'3 5.5
2018-May-20 14:00N 55°34' E 012°42'3 5.7
2018-May-20 13:30N 55°37' E 012°42'3 5.5
2018-May-20 13:00N 55°40' E 012°40'2 5.1
2018-May-20 12:30N 55°42' E 012°37'1 2.6
2018-May-20 11:59N 55°41' E 012°36'0 0.0
2018-May-20 11:29N 55°41' E 012°36'0 0.0
2018-May-20 10:59N 55°41' E 012°36'0 0.0
2018-May-20 10:29N 55°41' E 012°36'0 0.0
2018-May-20 09:59N 55°41' E 012°36'0 0.0
2018-May-20 09:29N 55°41' E 012°36'0 0.0
2018-May-20 08:59N 55°41' E 012°36'0 0.0
2018-May-20 08:29N 55°41' E 012°36'0 0.0
2018-May-20 07:59N 55°41' E 012°36'0 0.0
2018-May-20 07:29N 55°41' E 012°36'0 0.0
2018-May-20 06:59N 55°41' E 012°36'0 0.0
2018-May-20 06:29N 55°41' E 012°36'0 0.0
2018-May-20 05:59N 55°41' E 012°36'0 0.0
2018-May-20 05:29N 55°41' E 012°36'0 0.0
2018-May-20 04:59N 55°41' E 012°36'0 0.0
2018-May-20 04:26N 55°41' E 012°36'0 0.0
2018-May-20 03:59N 55°41' E 012°36'0 0.0
2018-May-20 03:29N 55°41' E 012°36'0 0.0
2018-May-20 02:59N 55°41' E 012°36'0 0.0
2018-May-20 02:29N 55°41' E 012°36'0 0.0
2018-May-20 01:59N 55°41' E 012°36'0 0.0
2018-May-20 01:29N 55°41' E 012°36'0 0.0
2018-May-20 00:59N 55°41' E 012°36'0 0.0
2018-May-20 00:29N 55°41' E 012°36'0 0.0
2018-May-19 23:59N 55°41' E 012°36'0 0.0
2018-May-19 23:29N 55°41' E 012°36'0 0.0
2018-May-19 22:59N 55°41' E 012°36'0 0.0
2018-May-19 22:29N 55°41' E 012°36'0 0.0
2018-May-19 21:59N 55°41' E 012°36'0 0.0
2018-May-19 21:29N 55°41' E 012°36'0 0.0
2018-May-19 20:59N 55°41' E 012°36'0 0.0
2018-May-19 20:29N 55°41' E 012°36'0 0.0
2018-May-19 19:59N 55°41' E 012°36'0 0.0
2018-May-19 19:29N 55°41' E 012°36'0 0.0
2018-May-19 18:59N 55°41' E 012°36'0 0.0
2018-May-19 18:29N 55°41' E 012°36'0 0.0
2018-May-19 17:59N 55°41' E 012°36'0 0.0
2018-May-19 17:29N 55°41' E 012°36'0 0.0
2018-May-19 16:59N 55°41' E 012°36'0 0.0
2018-May-19 16:29N 55°41' E 012°36'0 0.0
2018-May-19 15:59N 55°41' E 012°36'0 0.0
2018-May-19 15:29N 55°41' E 012°36'0 0.0
2018-May-19 14:59N 55°41' E 012°36'0 0.0
2018-May-19 14:29N 55°41' E 012°36'0 0.0
2018-May-19 13:59N 55°41' E 012°36'0 0.0
2018-May-19 13:29N 55°41' E 012°36'0 0.0
2018-May-19 12:59N 55°41' E 012°36'0 0.0
2018-May-19 12:29N 55°41' E 012°36'0 0.0
2018-May-19 11:59N 55°41' E 012°36'0 0.0
2018-May-19 11:29N 55°41' E 012°36'0 0.0
2018-May-19 10:59N 55°41' E 012°36'0 0.0
2018-May-19 10:29N 55°41' E 012°36'0 0.0
2018-May-19 09:59N 55°41' E 012°36'0 0.0
2018-May-19 09:29N 55°41' E 012°36'0 0.0
2018-May-19 08:59N 55°41' E 012°36'0 0.0
2018-May-19 08:29N 55°41' E 012°36'0 0.0
2018-May-19 07:59N 55°41' E 012°36'0 0.0
2018-May-19 07:29N 55°41' E 012°36'0 0.0
2018-May-19 06:59N 55°41' E 012°36'0 0.0
2018-May-19 06:29N 55°41' E 012°36'0 0.0
2018-May-19 05:59N 55°41' E 012°36'0 0.0
2018-May-19 05:29N 55°41' E 012°36'0 0.0
2018-May-19 04:59N 55°41' E 012°36'0 0.0
2018-May-19 04:29N 55°41' E 012°36'0 0.0
2018-May-19 03:59N 55°41' E 012°36'0 0.0
2018-May-19 03:29N 55°41' E 012°36'0 0.0
2018-May-19 02:59N 55°41' E 012°36'0 0.0
2018-May-19 02:29N 55°41' E 012°36'0 0.0
2018-May-19 01:59N 55°41' E 012°36'0 0.0
2018-May-19 01:29N 55°41' E 012°36'0 0.0
2018-May-19 00:59N 55°41' E 012°36'0 0.0
2018-May-19 00:29N 55°41' E 012°36'0 0.0
2018-May-18 23:59N 55°41' E 012°36'0 0.0
2018-May-18 23:29N 55°41' E 012°36'0 0.0
2018-May-18 22:59N 55°41' E 012°36'0 0.0
2018-May-18 22:29N 55°41' E 012°36'0 0.0
2018-May-18 21:59N 55°41' E 012°36'0 0.0
2018-May-18 21:29N 55°41' E 012°36'0 0.0
2018-May-18 20:59N 55°41' E 012°36'0 0.0
2018-May-18 20:29N 55°41' E 012°36'0 0.0
2018-May-18 19:59N 55°41' E 012°36'0 0.0
2018-May-18 19:29N 55°41' E 012°36'0 0.0
2018-May-18 18:59N 55°41' E 012°36'0 0.0
2018-May-18 18:29N 55°41' E 012°36'0 0.0
2018-May-18 17:59N 55°41' E 012°36'0 0.0
2018-May-18 17:29N 55°41' E 012°36'0 0.0
2018-May-18 16:59N 55°41' E 012°36'0 0.0
2018-May-18 16:29N 55°41' E 012°36'0 0.0
2018-May-18 15:59N 55°41' E 012°36'0 0.0
2018-May-18 15:29N 55°41' E 012°36'0 0.0
2018-May-18 14:59N 55°41' E 012°36'0 0.0
2018-May-18 14:29N 55°41' E 012°36'0 0.0
2018-May-18 13:59N 55°41' E 012°36'0 0.0
2018-May-18 13:29N 55°41' E 012°36'0 0.0
2018-May-18 12:59N 55°41' E 012°36'0 0.0
2018-May-18 12:29N 55°41' E 012°36'0 0.0
2018-May-18 11:59N 55°41' E 012°36'0 0.0
2018-May-18 11:29N 55°41' E 012°36'0 0.0
2018-May-18 10:59N 55°41' E 012°36'0 0.0
2018-May-18 10:29N 55°41' E 012°36'0 0.0
2018-May-18 09:59N 55°41' E 012°36'0 0.0
2018-May-18 09:29N 55°41' E 012°36'0 0.0
2018-May-18 08:59N 55°41' E 012°36'0 0.0
2018-May-18 08:29N 55°41' E 012°36'0 0.0
2018-May-18 07:59N 55°41' E 012°36'0 0.0
2018-May-18 07:30N 55°41' E 012°36'0 0.2
2018-May-18 06:58N 55°41' E 012°36'0 0.0
2018-May-18 06:28N 55°41' E 012°36'0 0.0
2018-May-18 05:58N 55°41' E 012°36'0 0.0
2018-May-18 05:28N 55°41' E 012°36'0 0.0
2018-May-18 04:58N 55°41' E 012°36'0 0.0
2018-May-18 04:28N 55°41' E 012°36'0 0.0
2018-May-18 03:58N 55°41' E 012°36'0 0.0
2018-May-18 03:28N 55°41' E 012°36'0 0.0
2018-May-18 02:58N 55°41' E 012°36'0 0.0
2018-May-18 02:28N 55°41' E 012°36'0 0.0
2018-May-18 01:58N 55°41' E 012°36'0 0.0
2018-May-18 01:28N 55°41' E 012°36'0 0.0
2018-May-18 00:58N 55°41' E 012°36'0 0.0
2018-May-18 00:28N 55°41' E 012°36'0 0.0
2018-May-17 23:58N 55°41' E 012°36'0 0.0
2018-May-17 23:28N 55°41' E 012°36'0 0.0
2018-May-17 22:58N 55°41' E 012°36'0 0.0
2018-May-17 22:28N 55°41' E 012°36'0 0.0
2018-May-17 21:58N 55°41' E 012°36'0 0.0
2018-May-17 21:28N 55°41' E 012°36'0 0.0
2018-May-17 20:58N 55°41' E 012°36'0 0.0
2018-May-17 20:28N 55°41' E 012°36'0 0.0
2018-May-17 19:58N 55°41' E 012°36'0 0.0
2018-May-17 19:28N 55°41' E 012°36'0 0.0
2018-May-17 18:58N 55°41' E 012°36'0 0.0
2018-May-17 18:28N 55°41' E 012°36'0 0.0
2018-May-17 17:58N 55°41' E 012°36'0 0.0
2018-May-17 17:27N 55°41' E 012°36'1 3.0
2018-May-17 17:00N 55°42' E 012°37'2 4.7
2018-May-17 16:30N 55°44' E 012°39'3 6.3
2018-May-17 16:00N 55°47' E 012°41'2 4.9
2018-May-17 15:30N 55°50' E 012°41'3 5.0
2018-May-17 15:00N 55°52' E 012°40'3 5.4
2018-May-17 14:30N 55°54' E 012°38'3 6.3
2018-May-17 14:00N 55°58' E 012°38'3 6.0
2018-May-17 13:28N 56°01' E 012°38'52 4.9
2018-May-17 02:57N 56°52' E 012°20'4 7.2
2018-May-17 02:24N 56°53' E 012°13'2 6.3
2018-May-17 02:00N 56°54' E 012°08'3 5.7
2018-May-17 01:28N 56°56' E 012°05'3 5.4
2018-May-17 01:00N 56°58' E 012°03'3 5.4
2018-May-17 00:30N 57°01' E 011°59'3 5.2
2018-May-17 00:00N 57°03' E 011°57'3 5.1
2018-May-16 23:30N 57°05' E 011°54'3 5.2
2018-May-16 23:00N 57°07' E 011°52'3 5.2
2018-May-16 22:28N 57°10' E 011°50'3 5.4
2018-May-16 22:00N 57°12' E 011°48'3 5.5
2018-May-16 21:30N 57°15' E 011°46'3 5.8
2018-May-16 21:00N 57°17' E 011°43'3 5.9
2018-May-16 20:30N 57°19' E 011°40'3 5.9
2018-May-16 20:00N 57°22' E 011°36'3 6.2
2018-May-16 19:30N 57°24' E 011°33'3 6.3
2018-May-16 19:00N 57°27' E 011°30'3 6.5
2018-May-16 18:30N 57°29' E 011°25'3 5.5
2018-May-16 18:00N 57°30' E 011°20'1 2.9
2018-May-16 17:30N 57°31' E 011°18'2 3.7
2018-May-16 17:00N 57°31' E 011°15'2 4.4
2018-May-16 16:30N 57°32' E 011°11'2 4.6
2018-May-16 16:00N 57°32' E 011°06'2 4.8
2018-May-16 15:30N 57°33' E 011°02'2 4.1
2018-May-16 15:00N 57°34' E 010°59'2 4.5
2018-May-16 14:27N 57°35' E 010°55'2 4.9
2018-May-16 14:00N 57°36' E 010°51'2 4.8
2018-May-16 13:30N 57°37' E 010°48'2 4.3
2018-May-16 13:00N 57°39' E 010°44'2 4.7
2018-May-16 12:30N 57°40' E 010°41'3 5.3
2018-May-16 12:00N 57°42' E 010°38'2 3.0
2018-May-16 11:27N 57°43' E 010°35'  

Dump ship's entire track history